»·PEaware :: AIE457 KMFR-KPAE

AIE457 :: KMFR-KPAE

FLIGHT INFORMATION

Flight Status: Arrived
Operator:
Air Inuit
More flights by this operator :: More flights under this callsign
Pilot: Alan S. (10569)
Aircraft: BOEING 737-200
(B732)
More flights by this aircraft type
Origin: KMFR Rogue Valley Intl-Medford
United States
Destination: KPAE Snohomish Co
United States
More flights between these airports :: More routes between these airports
Route: +BRUTE7 DREWS J1 BTG OLM2
File this flight plan on PilotEdge
Remarks: INUIT 457
Altitude:
(Current/Filed)
26,000ft
Speed:
(Current/Filed)
443kts
Departed: 01-Feb-18 06:03 PM
Arrived: 01-Feb-18 07:20 PM
Distance/Time
Traveled:
332nm/1:17
Distance/Time
To Go:
Arrived

Flight Plot

Page will automatically refresh every two minutes.

Flight plan parsing failed; only flown route is shown


Map Options




Map Legend


Flown Route
Filed Route
Departure Airport
Arrival Airport
Navaid (VOR, NDB)
Fix

Horizontal Profiles

Position Reports

Time Latitude Longitude Heading Altitude Ground
Speed
01-Feb-18 17:24 42.368206 -122.873147 248 1323ft 0kts
01-Feb-18 17:25 42.368206 -122.873147 248 1323ft 0kts
01-Feb-18 17:26 42.368206 -122.873147 248 1323ft 0kts
01-Feb-18 17:27 42.368206 -122.873147 248 1323ft 0kts
01-Feb-18 17:28 42.368206 -122.873147 248 1323ft 0kts
01-Feb-18 17:29 42.368206 -122.873147 248 1323ft 0kts
01-Feb-18 17:30 42.368206 -122.873147 248 1323ft 0kts
01-Feb-18 17:31 42.368206 -122.873147 248 1323ft 0kts
01-Feb-18 17:32 42.368206 -122.873147 248 1323ft 0kts
01-Feb-18 17:33 42.368206 -122.873147 248 1323ft 0kts
01-Feb-18 17:34 42.368206 -122.873147 248 1323ft 0kts
01-Feb-18 17:35 42.368206 -122.873147 248 1323ft 0kts
01-Feb-18 17:36 42.368206 -122.873147 248 1323ft 0kts
01-Feb-18 17:37 42.368206 -122.873147 248 1323ft 0kts
01-Feb-18 17:38 42.368206 -122.873147 248 1323ft 0kts
01-Feb-18 17:39 42.368206 -122.873147 248 1323ft 0kts
01-Feb-18 17:40 42.368206 -122.873147 248 1323ft 0kts
01-Feb-18 17:41 42.368206 -122.873147 248 1323ft 0kts
01-Feb-18 17:42 42.368206 -122.873147 248 1323ft 0kts
01-Feb-18 17:43 42.368206 -122.873147 248 1323ft 0kts
01-Feb-18 17:44 42.368206 -122.873147 248 1323ft 0kts
01-Feb-18 17:45 42.368206 -122.873147 248 1323ft 0kts
01-Feb-18 17:46 42.368206 -122.873147 248 1323ft 0kts
01-Feb-18 17:47 42.368206 -122.873147 248 1323ft 0kts
01-Feb-18 17:48 42.368206 -122.873147 248 1323ft 0kts
01-Feb-18 17:49 42.368206 -122.873147 248 1323ft 0kts
01-Feb-18 17:50 42.368206 -122.873147 248 1323ft 0kts
01-Feb-18 17:51 42.368206 -122.873147 248 1323ft 0kts
01-Feb-18 17:52 42.368206 -122.873147 248 1323ft 0kts
01-Feb-18 17:53 42.368206 -122.873147 248 1323ft 0kts
01-Feb-18 17:54 42.368206 -122.873147 248 1323ft 0kts
01-Feb-18 17:55 42.368206 -122.873147 248 1323ft 0kts
01-Feb-18 17:56 42.368206 -122.873147 248 1323ft 0kts
01-Feb-18 17:57 42.368284 -122.872891 242 1323ft 2kts
01-Feb-18 17:58 42.368759 -122.872480 180 1323ft 2kts
01-Feb-18 17:59 42.368988 -122.872536 158 1323ft 0kts
01-Feb-18 18:00 42.368988 -122.872536 158 1323ft 0kts
01-Feb-18 18:01 42.368988 -122.872536 158 1323ft 0kts
01-Feb-18 18:02 42.368885 -122.872368 102 1323ft 4kts
01-Feb-18 18:03 42.372664 -122.873646 339 1323ft 22kts
01-Feb-18 18:04 42.379500 -122.877327 338 1323ft 27kts
01-Feb-18 18:05 42.385558 -122.880374 7 1323ft 0kts
01-Feb-18 18:06 42.385558 -122.880374 7 1323ft 0kts
01-Feb-18 18:07 42.385558 -122.880374 7 1323ft 0kts
01-Feb-18 18:08 42.385665 -122.880322 27 1323ft 4kts
01-Feb-18 18:09 42.376428 -122.874027 158 1324ft 128kts
01-Feb-18 18:10 42.333833 -122.856300 192 2839ft 172kts
01-Feb-18 18:11 42.344777 -122.909398 359 4299ft 255kts
01-Feb-18 18:12 42.404053 -122.857510 67 7182ft 286kts
01-Feb-18 18:13 42.412303 -122.744054 82 9734ft 316kts
01-Feb-18 18:14 42.424862 -122.618479 78 11718ft 366kts
01-Feb-18 18:15 42.468812 -122.499989 27 14416ft 359kts
01-Feb-18 18:16 42.551486 -122.526579 301 16527ft 343kts
01-Feb-18 18:17 42.605571 -122.632996 315 18862ft 349kts
01-Feb-18 18:18 42.666106 -122.705936 316 20569ft 354kts
01-Feb-18 18:19 42.748589 -122.816359 301 22619ft 358kts
01-Feb-18 18:20 42.824210 -122.897121 1 23763ft 396kts
01-Feb-18 18:21 42.927568 -122.870954 358 25560ft 386kts
01-Feb-18 18:22 43.017861 -122.861801 357 25997ft 393kts
01-Feb-18 18:23 43.140783 -122.849887 357 26694ft 398kts
01-Feb-18 18:24 43.250091 -122.839332 357 27271ft 401kts
01-Feb-18 18:25 43.342303 -122.830373 357 27712ft 404kts
01-Feb-18 18:26 43.454208 -122.819455 357 28236ft 408kts
01-Feb-18 18:27 43.568258 -122.808311 357 28248ft 416kts
01-Feb-18 18:28 43.703227 -122.795018 357 28241ft 421kts
01-Feb-18 18:29 43.799681 -122.785487 357 28240ft 424kts
01-Feb-18 18:30 43.911760 -122.774375 357 28240ft 426kts
01-Feb-18 18:31 44.028741 -122.762723 357 28239ft 428kts
01-Feb-18 18:32 44.131835 -122.752479 357 28241ft 430kts
01-Feb-18 18:33 44.243978 -122.741325 357 28242ft 432kts
01-Feb-18 18:34 44.360818 -122.729331 358 28239ft 434kts
01-Feb-18 18:35 44.480104 -122.716598 357 28227ft 435kts
01-Feb-18 18:36 44.598359 -122.705065 357 28223ft 435kts
01-Feb-18 18:37 44.715074 -122.693796 357 28221ft 436kts
01-Feb-18 18:38 44.834719 -122.682191 357 28222ft 437kts
01-Feb-18 18:39 44.955677 -122.670421 357 28228ft 437kts
01-Feb-18 18:40 45.076089 -122.658656 356 28230ft 437kts
01-Feb-18 18:41 45.183366 -122.648138 356 28234ft 438kts
01-Feb-18 18:42 45.297292 -122.636948 356 28232ft 438kts
01-Feb-18 18:43 45.417210 -122.625144 356 28225ft 439kts
01-Feb-18 18:44 45.537019 -122.613321 356 28223ft 439kts
01-Feb-18 18:45 45.655711 -122.601569 356 28223ft 439kts
01-Feb-18 18:46 45.775006 -122.604423 346 28221ft 427kts
01-Feb-18 18:47 45.885916 -122.626379 342 27684ft 396kts
01-Feb-18 18:48 45.992410 -122.654440 342 26411ft 390kts
01-Feb-18 18:49 46.097055 -122.681279 342 25201ft 384kts
01-Feb-18 18:50 46.186461 -122.703964 342 24177ft 377kts
01-Feb-18 18:51 46.282016 -122.728440 342 22672ft 371kts
01-Feb-18 18:52 46.377452 -122.753008 342 21172ft 363kts
01-Feb-18 18:53 46.470877 -122.777156 342 19674ft 356kts
01-Feb-18 18:54 46.565579 -122.801728 342 18188ft 349kts
01-Feb-18 18:55 46.659027 -122.825307 344 16758ft 344kts
01-Feb-18 18:56 46.751552 -122.846386 343 15381ft 337kts
01-Feb-18 18:57 46.842105 -122.868969 343 14060ft 331kts
01-Feb-18 18:58 46.929278 -122.891147 343 12967ft 330kts
01-Feb-18 18:59 47.012368 -122.850171 37 12041ft 351kts
01-Feb-18 19:00 47.080552 -122.762773 37 11864ft 317kts
01-Feb-18 19:01 47.143594 -122.682341 37 11101ft 310kts
01-Feb-18 19:02 47.205213 -122.603338 36 10235ft 301kts
01-Feb-18 19:03 47.263166 -122.528726 37 10028ft 296kts
01-Feb-18 19:04 47.333048 -122.473646 359 10035ft 294kts
01-Feb-18 19:05 47.411380 -122.465913 359 10005ft 303kts
01-Feb-18 19:06 47.492188 -122.459694 359 9323ft 302kts
01-Feb-18 19:07 47.561800 -122.457445 359 8646ft 300kts
01-Feb-18 19:08 47.643889 -122.456958 359 7798ft 295kts
01-Feb-18 19:09 47.723204 -122.458141 358 7175ft 280kts
01-Feb-18 19:10 47.794902 -122.455979 359 6671ft 259kts
01-Feb-18 19:11 47.866355 -122.453528 359 6015ft 251kts
01-Feb-18 19:12 47.935001 -122.451208 359 6019ft 247kts
01-Feb-18 19:13 48.002584 -122.449059 359 6003ft 243kts
01-Feb-18 19:14 48.069430 -122.448211 359 5181ft 239kts
01-Feb-18 19:15 48.134621 -122.450910 359 3754ft 264kts
01-Feb-18 19:16 48.197344 -122.456722 358 2987ft 250kts
01-Feb-18 19:17 48.243301 -122.413096 91 2979ft 211kts
01-Feb-18 19:18 48.216698 -122.350735 145 3051ft 171kts
01-Feb-18 19:19 48.178820 -122.314934 143 3056ft 164kts
01-Feb-18 19:20 48.135398 -122.295051 168 2968ft 168kts
01-Feb-18 19:21 48.087892 -122.290367 176 2977ft 177kts
01-Feb-18 19:22 48.038098 -122.289140 175 2635ft 180kts
01-Feb-18 19:23 47.992978 -122.287821 175 1812ft 145kts
01-Feb-18 19:24 47.952955 -122.286958 177 1142ft 143kts
01-Feb-18 19:25 47.914428 -122.285689 175 572ft 126kts
01-Feb-18 19:26 47.897073 -122.285351 162 551ft 5kts
01-Feb-18 19:27 47.896938 -122.283410 52 568ft 11kts

Navigation Log

Ident Type
Flight plan parsing failed, navigation log unavailable